createdAt,value
2024-03-28T00:00:16.717Z,8.17
2024-03-28T00:01:42.308Z,7.85
2024-03-28T00:02:16.022Z,7.89
2024-03-28T00:02:49.306Z,7.92
2024-03-28T00:03:22.703Z,7.83
2024-03-28T00:03:56.089Z,7.67
2024-03-28T00:04:29.444Z,7.54
2024-03-28T00:05:19.642Z,7.57
2024-03-28T00:05:56.887Z,7.71
2024-03-28T00:06:30.178Z,7.50
2024-03-28T00:07:03.866Z,7.42
2024-03-28T00:07:37.997Z,7.47
2024-03-28T00:08:11.278Z,7.50
2024-03-28T00:09:04.431Z,7.53
2024-03-28T00:09:37.838Z,7.34
2024-03-28T00:10:11.597Z,7.41
2024-03-28T00:10:48.923Z,7.29
2024-03-28T00:11:21.979Z,7.21
2024-03-28T00:11:55.155Z,7.16
2024-03-28T00:12:45.288Z,7.24
2024-03-28T00:13:19.866Z,7.08
2024-03-28T00:13:53.753Z,7.06
2024-03-28T00:14:28.093Z,6.96
2024-03-28T00:15:01.739Z,6.96
2024-03-28T00:15:36.242Z,6.86
2024-03-28T00:16:27.084Z,6.93
2024-03-28T00:17:02.758Z,6.78
2024-03-28T00:17:36.286Z,6.84
2024-03-28T00:18:09.885Z,6.82
2024-03-28T00:18:43.311Z,6.84
2024-03-28T00:19:26.790Z,6.72
2024-03-28T00:20:13.842Z,6.69
2024-03-28T00:20:47.305Z,6.73
2024-03-28T00:21:20.779Z,6.81
2024-03-28T00:21:53.948Z,6.77
2024-03-28T00:22:27.140Z,6.81
2024-03-28T00:23:02.808Z,6.73
2024-03-28T00:23:55.316Z,6.72
2024-03-28T00:24:29.073Z,6.68
2024-03-28T00:25:02.220Z,6.66
2024-03-28T00:25:35.140Z,6.55
2024-03-28T00:26:10.045Z,6.63
2024-03-28T00:26:43.111Z,6.69
2024-03-28T00:27:32.691Z,6.65
2024-03-28T00:28:06.702Z,6.67
2024-03-28T00:28:40.134Z,6.65
2024-03-28T00:29:13.504Z,6.59
2024-03-28T00:29:47.165Z,6.55
2024-03-28T00:30:20.667Z,6.43
2024-03-28T00:31:10.740Z,6.67
2024-03-28T00:31:44.105Z,6.62
2024-03-28T00:32:17.612Z,6.78
2024-03-28T00:32:51.129Z,6.63
2024-03-28T00:33:24.757Z,6.64
2024-03-28T00:33:58.323Z,6.65
2024-03-28T00:34:47.863Z,6.57
2024-03-28T00:35:22.259Z,6.56
2024-03-28T00:35:56.158Z,6.60
2024-03-28T00:36:29.490Z,6.65
2024-03-28T00:37:02.896Z,6.73
2024-03-28T00:37:36.163Z,6.75
2024-03-28T00:38:33.447Z,6.56
2024-03-28T00:39:07.186Z,6.52
2024-03-28T00:39:40.280Z,6.44
2024-03-28T00:40:16.898Z,6.50
2024-03-28T00:40:52.384Z,6.67
2024-03-28T00:41:25.808Z,6.56
2024-03-28T00:42:12.647Z,6.51
2024-03-28T00:42:46.609Z,6.27
2024-03-28T00:43:22.081Z,6.47
2024-03-28T00:43:55.122Z,6.32
2024-03-28T00:44:28.356Z,6.33
2024-03-28T00:45:02.340Z,6.37
2024-03-28T00:45:54.254Z,6.39
2024-03-28T00:46:27.673Z,6.39
2024-03-28T00:47:00.882Z,6.31
2024-03-28T00:47:34.154Z,6.33
2024-03-28T00:48:07.550Z,6.22
2024-03-28T00:48:40.551Z,6.16
2024-03-28T00:49:35.363Z,6.28
2024-03-28T00:50:09.005Z,6.24
2024-03-28T00:50:42.131Z,6.23
2024-03-28T00:51:15.472Z,6.18
2024-03-28T00:51:48.723Z,6.15
2024-03-28T00:52:21.808Z,6.19
2024-03-28T00:53:18.607Z,6.20
2024-03-28T00:53:51.853Z,6.17
2024-03-28T00:54:24.798Z,6.22
2024-03-28T00:54:58.154Z,6.23
2024-03-28T00:55:31.780Z,6.16
2024-03-28T00:56:05.192Z,6.24
2024-03-28T00:56:53.891Z,6.34
2024-03-28T00:57:27.174Z,6.13
2024-03-28T00:58:00.582Z,6.23
2024-03-28T00:58:34.373Z,6.21
2024-03-28T00:59:07.693Z,6.18
2024-03-28T00:59:40.845Z,6.15
2024-03-28T01:00:34.587Z,6.16
2024-03-28T01:01:07.831Z,6.04
2024-03-28T01:01:41.005Z,5.96
2024-03-28T01:02:14.112Z,5.95
2024-03-28T01:02:47.825Z,6.06
2024-03-28T01:03:21.164Z,5.97
2024-03-28T01:04:16.791Z,5.99
2024-03-28T01:04:51.562Z,5.99
2024-03-28T01:05:24.595Z,5.96
2024-03-28T01:05:58.924Z,6.07
2024-03-28T01:06:32.340Z,6.02
2024-03-28T01:07:05.648Z,5.96
2024-03-28T01:07:54.080Z,6.01
2024-03-28T01:08:28.516Z,5.94
2024-03-28T01:09:01.950Z,5.93
2024-03-28T01:09:35.315Z,6.01
2024-03-28T01:10:09.112Z,6.05
2024-03-28T01:10:42.694Z,5.96
2024-03-28T01:11:36.231Z,5.84
2024-03-28T01:12:09.776Z,5.78
2024-03-28T01:12:43.363Z,5.79
2024-03-28T01:13:16.743Z,5.74
2024-03-28T01:13:50.116Z,5.75
2024-03-28T01:14:23.328Z,5.79
2024-03-28T01:15:18.932Z,5.85
2024-03-28T01:15:52.183Z,5.86
2024-03-28T01:16:25.795Z,5.84
2024-03-28T01:16:59.194Z,5.84
2024-03-28T01:17:32.741Z,5.87
2024-03-28T01:18:06.046Z,5.83
2024-03-28T01:18:54.750Z,5.91
2024-03-28T01:19:28.033Z,5.86
2024-03-28T01:20:01.193Z,5.68
2024-03-28T01:20:34.595Z,5.73
2024-03-28T01:21:08.180Z,5.78
2024-03-28T01:21:41.291Z,5.83
2024-03-28T01:22:34.992Z,5.99
2024-03-28T01:23:08.504Z,5.87
2024-03-28T01:23:41.999Z,5.87
2024-03-28T01:24:15.189Z,5.94
2024-03-28T01:24:48.670Z,5.95
2024-03-28T01:25:22.011Z,5.83
2024-03-28T01:26:15.894Z,5.87
2024-03-28T01:26:49.867Z,5.91
2024-03-28T01:27:23.779Z,5.91
2024-03-28T01:27:59.536Z,5.96
2024-03-28T01:28:34.219Z,5.89
2024-03-28T01:29:07.484Z,5.74
2024-03-28T01:29:57.817Z,5.78
2024-03-28T01:30:31.267Z,5.70
2024-03-28T01:31:05.465Z,5.74
2024-03-28T01:31:38.696Z,5.71
2024-03-28T01:32:12.251Z,5.70
2024-03-28T01:32:45.435Z,5.67
2024-03-28T01:33:38.783Z,5.62
2024-03-28T01:34:11.943Z,5.64
2024-03-28T01:34:45.159Z,5.69
2024-03-28T01:35:18.792Z,5.68
2024-03-28T01:35:52.337Z,5.69
2024-03-28T01:36:25.626Z,5.69
2024-03-28T01:37:19.363Z,5.80
2024-03-28T01:37:53.070Z,5.67
2024-03-28T01:38:26.121Z,5.52
2024-03-28T01:38:59.455Z,5.48
2024-03-28T01:39:32.890Z,5.52
2024-03-28T01:40:06.598Z,5.58
2024-03-28T01:41:00.432Z,5.75
2024-03-28T01:41:33.894Z,5.72
2024-03-28T01:42:07.399Z,5.71
2024-03-28T01:42:40.678Z,5.62
2024-03-28T01:43:14.065Z,5.47
2024-03-28T01:43:47.537Z,5.52
2024-03-28T01:44:37.944Z,5.72
2024-03-28T01:45:14.257Z,5.52
2024-03-28T01:45:48.242Z,5.51
2024-03-28T01:46:32.361Z,5.64
2024-03-28T01:47:35.351Z,5.69
2024-03-28T01:48:35.858Z,5.58
2024-03-28T01:49:10.823Z,5.63
2024-03-28T01:49:44.677Z,5.57
2024-03-28T01:50:18.276Z,5.48
2024-03-28T01:50:51.597Z,5.68
2024-03-28T01:51:25.827Z,5.59
2024-03-28T01:52:19.152Z,5.48
2024-03-28T01:52:53.328Z,5.56
2024-03-28T01:53:29.168Z,5.46
2024-03-28T01:54:06.189Z,5.49
2024-03-28T01:54:41.119Z,5.42
2024-03-28T01:55:14.886Z,5.36
2024-03-28T01:56:00.041Z,5.45
2024-03-28T01:56:35.473Z,5.31
2024-03-28T01:57:14.735Z,5.32
2024-03-28T01:57:49.145Z,5.35
2024-03-28T01:58:22.658Z,5.38
2024-03-28T01:58:55.877Z,5.42
2024-03-28T01:59:44.498Z,5.44
2024-03-28T02:00:19.865Z,5.40
2024-03-28T02:00:54.253Z,5.40
2024-03-28T02:01:28.296Z,5.44
2024-03-28T02:02:03.552Z,5.28
2024-03-28T02:02:38.880Z,5.14
2024-03-28T02:03:28.128Z,5.13
2024-03-28T02:04:01.429Z,5.21
2024-03-28T02:04:37.278Z,5.31
2024-03-28T02:05:11.408Z,5.38
2024-03-28T02:05:45.656Z,5.25
2024-03-28T02:06:19.139Z,5.23
2024-03-28T02:07:07.175Z,5.26
2024-03-28T02:07:40.766Z,5.09
2024-03-28T02:08:14.256Z,5.10
2024-03-28T02:08:48.886Z,4.96
2024-03-28T02:09:22.988Z,4.92
2024-03-28T02:09:56.215Z,5.19
2024-03-28T02:10:48.010Z,5.12
2024-03-28T02:11:21.585Z,4.96
2024-03-28T02:11:55.036Z,4.90
2024-03-28T02:12:28.757Z,4.87
2024-03-28T02:13:02.936Z,4.88
2024-03-28T02:13:36.547Z,4.99
2024-03-28T02:14:29.245Z,5.04
2024-03-28T02:15:03.094Z,5.15
2024-03-28T02:15:36.471Z,5.24
2024-03-28T02:16:09.784Z,5.09
2024-03-28T02:16:43.294Z,5.05
2024-03-28T02:17:16.432Z,5.05
2024-03-28T02:18:10.436Z,5.06
2024-03-28T02:18:44.033Z,4.97
2024-03-28T02:19:17.523Z,4.91
2024-03-28T02:19:50.998Z,4.99
2024-03-28T02:20:24.474Z,5.00
2024-03-28T02:20:58.713Z,5.01
2024-03-28T02:21:51.499Z,5.03
2024-03-28T02:22:25.055Z,4.87
2024-03-28T02:22:58.694Z,4.78
2024-03-28T02:23:32.572Z,4.79
2024-03-28T02:24:06.120Z,4.70
2024-03-28T02:24:42.319Z,4.77
2024-03-28T02:25:31.222Z,5.00
2024-03-28T02:26:05.420Z,4.92
2024-03-28T02:26:40.085Z,4.98
2024-03-28T02:27:13.649Z,5.04
2024-03-28T02:27:46.748Z,4.94
2024-03-28T02:28:20.172Z,4.94
2024-03-28T02:29:12.786Z,4.91
2024-03-28T02:29:46.543Z,4.97
2024-03-28T02:30:20.456Z,5.03
2024-03-28T02:30:53.634Z,5.01
2024-03-28T02:31:26.705Z,4.94
2024-03-28T02:32:00.135Z,4.93
2024-03-28T02:32:54.374Z,5.07
2024-03-28T02:33:28.190Z,4.93
2024-03-28T02:34:01.343Z,4.89
2024-03-28T02:34:34.615Z,4.81
2024-03-28T02:35:09.580Z,4.98
2024-03-28T02:35:43.118Z,5.03
2024-03-28T02:36:35.358Z,4.94
2024-03-28T02:37:09.043Z,4.82
2024-03-28T02:37:43.843Z,4.86
2024-03-28T02:38:23.707Z,4.95
2024-03-28T02:38:57.145Z,5.02
2024-03-28T02:39:30.673Z,4.87
2024-03-28T02:40:19.650Z,4.81
2024-03-28T02:40:53.191Z,4.79
2024-03-28T02:41:26.480Z,4.76
2024-03-28T02:41:59.901Z,4.88
2024-03-28T02:42:33.111Z,4.88
2024-03-28T02:43:06.493Z,4.71
2024-03-28T02:43:56.999Z,4.93
2024-03-28T02:44:30.716Z,4.86
2024-03-28T02:45:04.624Z,5.02
2024-03-28T02:45:40.376Z,5.08
2024-03-28T02:46:13.889Z,5.01
2024-03-28T02:46:47.072Z,5.06
2024-03-28T02:47:38.234Z,5.00
2024-03-28T02:48:11.698Z,5.01
2024-03-28T02:48:44.964Z,5.04
2024-03-28T02:49:18.147Z,4.90
2024-03-28T02:49:51.225Z,4.82
2024-03-28T02:50:24.333Z,4.92
2024-03-28T02:51:19.022Z,5.06
2024-03-28T02:51:52.192Z,5.03
2024-03-28T02:52:26.537Z,5.01
2024-03-28T02:52:59.725Z,5.15
2024-03-28T02:53:32.952Z,5.07
2024-03-28T02:54:06.176Z,5.07
2024-03-28T02:54:59.655Z,5.03
2024-03-28T02:55:33.318Z,5.02
2024-03-28T02:56:07.097Z,5.15
2024-03-28T02:56:40.315Z,5.02
2024-03-28T02:57:26.015Z,4.93
2024-03-28T02:57:59.433Z,4.76
2024-03-28T02:58:42.922Z,4.82
2024-03-28T02:59:16.230Z,5.02
2024-03-28T02:59:49.526Z,5.00
2024-03-28T03:00:22.822Z,4.92
2024-03-28T03:00:56.271Z,4.90
2024-03-28T03:01:29.658Z,4.83
2024-03-28T03:02:24.663Z,4.92
2024-03-28T03:03:00.423Z,4.98
2024-03-28T03:03:34.077Z,4.77
2024-03-28T03:04:08.785Z,4.75
2024-03-28T03:04:41.937Z,4.78
2024-03-28T03:05:15.233Z,4.82
2024-03-28T03:06:05.052Z,4.91
2024-03-28T03:06:38.454Z,4.88
2024-03-28T03:07:11.668Z,4.72
2024-03-28T03:07:44.957Z,5.00
2024-03-28T03:08:18.304Z,5.00
2024-03-28T03:08:51.732Z,5.04
2024-03-28T03:09:42.591Z,5.05
2024-03-28T03:10:16.500Z,4.93
2024-03-28T03:10:51.047Z,4.98
2024-03-28T03:12:47.219Z,4.91
2024-03-28T03:13:21.334Z,4.97
2024-03-28T03:14:09.622Z,4.97
2024-03-28T03:14:43.303Z,4.88
2024-03-28T03:15:16.612Z,4.95
2024-03-28T03:15:54.263Z,4.94
2024-03-28T03:16:27.566Z,5.01
2024-03-28T03:17:01.185Z,4.86
2024-03-28T03:17:49.575Z,4.92
2024-03-28T03:18:27.453Z,4.93
2024-03-28T03:19:04.024Z,5.01
2024-03-28T03:19:37.842Z,4.88
2024-03-28T03:20:15.061Z,4.75
2024-03-28T03:20:51.291Z,4.76
2024-03-28T03:21:34.749Z,4.86
2024-03-28T03:22:08.243Z,4.70
2024-03-28T03:22:49.918Z,4.78
2024-03-28T03:23:23.441Z,4.80
2024-03-28T03:24:02.175Z,4.83
2024-03-28T03:24:40.076Z,4.91
2024-03-28T03:25:27.775Z,4.89
2024-03-28T03:26:01.302Z,4.89
2024-03-28T03:26:36.495Z,4.71
2024-03-28T03:27:17.602Z,4.80
2024-03-28T03:28:11.071Z,4.90
2024-03-28T03:29:19.775Z,4.95
2024-03-28T03:30:11.193Z,4.84
2024-03-28T03:31:05.041Z,4.67
2024-03-28T03:31:56.571Z,4.71
2024-03-28T03:33:19.262Z,4.75
2024-03-28T03:34:11.056Z,4.84
2024-03-28T03:34:45.281Z,4.80
2024-03-28T03:35:22.142Z,4.89
2024-03-28T03:35:55.681Z,4.82
2024-03-28T03:36:41.036Z,4.87
2024-03-28T03:37:22.831Z,4.82
2024-03-28T03:37:56.027Z,4.76
2024-03-28T03:38:29.233Z,4.87
2024-03-28T03:39:04.058Z,4.88
2024-03-28T03:39:37.809Z,4.84
2024-03-28T03:40:30.038Z,4.87
2024-03-28T03:41:03.629Z,4.88
2024-03-28T03:41:36.747Z,4.87
2024-03-28T03:42:10.105Z,4.79
2024-03-28T03:42:43.204Z,4.86
2024-03-28T03:43:16.159Z,4.93
2024-03-28T03:44:10.791Z,4.92
2024-03-28T03:44:44.112Z,4.68
2024-03-28T03:45:17.495Z,4.70
2024-03-28T03:45:52.232Z,4.77
2024-03-28T03:46:26.733Z,4.85
2024-03-28T03:47:01.230Z,4.84
2024-03-28T03:47:51.226Z,4.89
2024-03-28T03:48:24.282Z,4.79
2024-03-28T03:48:57.358Z,4.70
2024-03-28T03:49:30.591Z,4.83
2024-03-28T03:50:04.082Z,4.89
2024-03-28T03:50:37.308Z,4.79
2024-03-28T03:51:31.474Z,4.83
2024-03-28T03:52:05.436Z,4.74
2024-03-28T03:52:38.652Z,4.72
2024-03-28T03:53:11.789Z,4.76
2024-03-28T03:53:44.999Z,4.84
2024-03-28T03:54:18.233Z,4.81
2024-03-28T03:55:12.734Z,4.84
2024-03-28T03:55:55.934Z,4.64
2024-03-28T03:56:29.814Z,4.65
2024-03-28T03:57:03.201Z,4.69
2024-03-28T03:57:36.537Z,4.73
2024-03-28T03:58:09.811Z,4.75
2024-03-28T03:59:04.090Z,4.75
2024-03-28T03:59:38.824Z,4.64
2024-03-28T04:00:13.265Z,4.76
2024-03-28T04:00:46.425Z,4.80
2024-03-28T04:01:19.706Z,4.73
2024-03-28T04:01:54.442Z,4.76
2024-03-28T04:02:41.396Z,4.84
2024-03-28T04:03:14.849Z,4.75
2024-03-28T04:03:48.034Z,4.73
2024-03-28T04:04:21.241Z,4.75
2024-03-28T04:04:54.578Z,4.74
2024-03-28T04:05:28.130Z,4.69
2024-03-28T04:06:23.365Z,4.82
2024-03-28T04:06:57.852Z,4.78
2024-03-28T04:07:31.188Z,4.78
2024-03-28T04:08:04.555Z,4.83
2024-03-28T04:08:38.281Z,4.80
2024-03-28T04:09:12.718Z,4.78
2024-03-28T04:09:59.863Z,4.79
2024-03-28T04:10:34.462Z,4.92
2024-03-28T04:11:08.243Z,4.87
2024-03-28T04:11:41.331Z,4.89
2024-03-28T04:12:14.536Z,4.91
2024-03-28T04:12:47.601Z,4.98
2024-03-28T04:13:42.235Z,5.03
2024-03-28T04:14:16.718Z,4.97
2024-03-28T04:14:50.188Z,4.82
2024-03-28T04:15:23.296Z,4.89
2024-03-28T04:15:56.688Z,4.83
2024-03-28T04:16:30.059Z,4.73
2024-03-28T04:17:19.662Z,4.79
2024-03-28T04:17:53.251Z,4.79
2024-03-28T04:18:26.596Z,4.82
2024-03-28T04:18:59.798Z,4.87
2024-03-28T04:19:32.984Z,4.77
2024-03-28T04:20:12.543Z,4.84
2024-03-28T04:21:05.301Z,4.87
2024-03-28T04:21:41.513Z,4.75
2024-03-28T04:22:17.578Z,4.83
2024-03-28T04:22:50.759Z,4.68
2024-03-28T04:23:25.044Z,4.76
2024-03-28T04:23:58.577Z,4.80
2024-03-28T04:24:40.107Z,4.82
2024-03-28T04:25:13.703Z,4.73
2024-03-28T04:25:55.069Z,4.76
2024-03-28T04:26:33.635Z,4.69
2024-03-28T04:27:07.255Z,4.80
2024-03-28T04:27:40.836Z,4.82
2024-03-28T04:28:29.093Z,4.75
2024-03-28T04:29:02.589Z,4.72
2024-03-28T04:29:38.368Z,4.69
2024-03-28T04:30:12.175Z,4.66
2024-03-28T04:30:45.329Z,4.72
2024-03-28T04:31:18.591Z,4.72
2024-03-28T04:32:07.696Z,4.77
2024-03-28T04:32:41.373Z,4.66
2024-03-28T04:33:15.190Z,4.74
2024-03-28T04:33:49.531Z,4.66
2024-03-28T04:34:24.700Z,4.68
2024-03-28T04:34:57.956Z,4.69
2024-03-28T04:35:47.815Z,4.78
2024-03-28T04:36:21.241Z,4.68
2024-03-28T04:36:54.595Z,4.59
2024-03-28T04:37:27.722Z,4.59
2024-03-28T04:38:00.922Z,4.72
2024-03-28T04:38:36.611Z,4.71
2024-03-28T04:39:23.414Z,4.70
2024-03-28T04:39:56.944Z,4.64
2024-03-28T04:40:31.180Z,4.73
2024-03-28T04:41:05.242Z,4.67
2024-03-28T04:41:38.569Z,4.80
2024-03-28T04:42:11.689Z,4.76
2024-03-28T04:43:02.795Z,4.73
2024-03-28T04:43:39.082Z,4.70
2024-03-28T04:44:12.605Z,4.71
2024-03-28T04:44:45.922Z,4.70
2024-03-28T04:45:19.678Z,4.73
2024-03-28T04:45:53.555Z,4.71
2024-03-28T04:46:47.612Z,4.58
2024-03-28T04:47:20.987Z,4.62
2024-03-28T04:47:54.395Z,4.60
2024-03-28T04:48:27.697Z,4.71
2024-03-28T04:49:01.104Z,4.70
2024-03-28T04:49:35.049Z,4.60
2024-03-28T04:50:22.804Z,4.69
2024-03-28T04:50:58.833Z,4.66
2024-03-28T04:51:34.441Z,4.62
2024-03-28T04:52:08.046Z,4.67
2024-03-28T04:52:41.539Z,4.65
2024-03-28T04:53:15.744Z,4.71
2024-03-28T04:54:07.190Z,4.68
2024-03-28T04:54:40.958Z,4.56
2024-03-28T04:55:14.926Z,4.59
2024-03-28T04:55:48.105Z,4.69
2024-03-28T04:56:21.253Z,4.60
2024-03-28T04:56:54.308Z,4.62
2024-03-28T04:57:49.322Z,4.73
2024-03-28T04:58:22.409Z,4.56
2024-03-28T04:58:55.838Z,4.50
2024-03-28T04:59:29.124Z,4.56
2024-03-28T05:00:02.445Z,4.60
2024-03-28T05:00:37.031Z,4.58
2024-03-28T05:01:26.388Z,4.75
2024-03-28T05:01:59.686Z,4.56
2024-03-28T05:02:33.691Z,4.58
2024-03-28T05:03:06.680Z,4.57
2024-03-28T05:03:39.871Z,4.61
2024-03-28T05:04:13.416Z,4.62
2024-03-28T05:05:07.631Z,4.63
2024-03-28T05:05:40.880Z,4.48
2024-03-28T05:06:14.697Z,4.50
2024-03-28T05:06:48.200Z,4.53
2024-03-28T05:07:22.847Z,4.54
2024-03-28T05:07:56.423Z,4.67
2024-03-28T05:08:48.903Z,4.68
2024-03-28T05:09:22.104Z,4.56
2024-03-28T05:09:55.214Z,4.53
2024-03-28T05:10:28.919Z,4.45
2024-03-28T05:11:02.167Z,4.56
2024-03-28T05:11:35.451Z,4.55
2024-03-28T05:12:25.963Z,4.61
2024-03-28T05:12:59.197Z,4.49
2024-03-28T05:13:32.564Z,4.57
2024-03-28T05:14:05.917Z,4.55
2024-03-28T05:14:39.224Z,4.54
2024-03-28T05:15:12.810Z,4.58
2024-03-28T05:16:08.922Z,4.61
2024-03-28T05:16:43.644Z,4.50
2024-03-28T05:17:17.019Z,4.50
2024-03-28T05:17:50.660Z,4.50
2024-03-28T05:18:24.566Z,4.49
2024-03-28T05:18:57.915Z,4.50
2024-03-28T05:19:46.067Z,4.47
2024-03-28T05:20:19.662Z,4.39
2024-03-28T05:20:52.899Z,4.37
2024-03-28T05:21:26.007Z,4.44
2024-03-28T05:21:59.337Z,4.40
2024-03-28T05:22:33.448Z,4.40
2024-03-28T05:23:27.572Z,4.41
2024-03-28T05:24:01.074Z,4.38
2024-03-28T05:24:35.079Z,4.40
2024-03-28T05:25:08.182Z,4.41
2024-03-28T05:25:41.498Z,4.46
2024-03-28T05:26:16.015Z,4.52
2024-03-28T05:27:05.780Z,4.51
2024-03-28T05:27:39.277Z,4.45
2024-03-28T05:28:12.795Z,4.43
2024-03-28T05:28:45.778Z,4.48
2024-03-28T05:29:19.013Z,4.43
2024-03-28T05:29:52.276Z,4.41
2024-03-28T05:30:42.727Z,4.51
2024-03-28T05:31:18.640Z,4.47
2024-03-28T05:31:51.924Z,4.51
2024-03-28T05:32:25.319Z,4.55
2024-03-28T05:32:58.537Z,4.46
2024-03-28T05:33:31.674Z,4.47
2024-03-28T05:34:26.429Z,4.50
2024-03-28T05:35:00.257Z,4.43
2024-03-28T05:35:34.106Z,4.38
2024-03-28T05:36:07.788Z,4.49
2024-03-28T05:36:41.677Z,4.55
2024-03-28T05:37:14.898Z,4.48
2024-03-28T05:38:04.323Z,4.53
2024-03-28T05:38:38.181Z,4.45
2024-03-28T05:39:12.260Z,4.46
2024-03-28T05:39:45.581Z,4.60
2024-03-28T05:40:19.135Z,4.56
2024-03-28T05:40:52.771Z,4.60
2024-03-28T05:41:42.471Z,4.69
2024-03-28T05:42:15.669Z,4.72
2024-03-28T05:42:49.055Z,4.75
2024-03-28T05:43:22.449Z,4.73
2024-03-28T05:43:55.872Z,4.78
2024-03-28T05:44:29.088Z,4.81
2024-03-28T05:45:19.536Z,4.83
2024-03-28T05:45:53.016Z,4.86
2024-03-28T05:46:26.685Z,4.95
2024-03-28T05:47:00.031Z,4.98
2024-03-28T05:47:33.450Z,4.99
2024-03-28T05:48:07.281Z,4.97
2024-03-28T05:49:00.234Z,4.99
2024-03-28T05:49:33.529Z,4.99
2024-03-28T05:50:07.356Z,5.10
2024-03-28T05:50:40.726Z,5.09
2024-03-28T05:51:19.238Z,5.10
2024-03-28T05:51:53.552Z,5.07
2024-03-28T05:52:40.895Z,5.08
2024-03-28T05:53:15.415Z,5.12
2024-03-28T05:53:51.912Z,5.16
2024-03-28T05:54:25.221Z,5.23
2024-03-28T05:54:58.579Z,5.17
2024-03-28T05:55:32.031Z,5.15
2024-03-28T05:56:23.757Z,5.21
2024-03-28T05:56:57.980Z,5.14
2024-03-28T05:57:31.110Z,5.19
2024-03-28T05:58:04.557Z,5.17
2024-03-28T05:58:38.061Z,5.25
2024-03-28T05:59:11.324Z,5.29
2024-03-28T06:00:00.657Z,5.37
2024-03-28T06:00:34.092Z,5.34
2024-03-28T06:01:07.780Z,5.50
2024-03-28T06:01:41.052Z,5.43
2024-03-28T06:02:14.369Z,5.43
2024-03-28T06:02:47.801Z,5.47
2024-03-28T06:03:41.781Z,5.62
2024-03-28T06:04:15.312Z,5.50
2024-03-28T06:04:48.630Z,5.54
2024-03-28T06:05:22.165Z,5.53
2024-03-28T06:05:55.688Z,5.49
2024-03-28T06:06:28.977Z,5.49
2024-03-28T06:07:22.446Z,5.66
2024-03-28T06:07:56.513Z,5.62
2024-03-28T06:08:30.001Z,5.62
2024-03-28T06:09:03.566Z,5.62
2024-03-28T06:09:36.626Z,5.62
2024-03-28T06:10:10.576Z,5.69
2024-03-28T06:11:05.339Z,5.71
2024-03-28T06:11:38.915Z,5.61
2024-03-28T06:12:12.757Z,5.70
2024-03-28T06:12:45.885Z,5.75
2024-03-28T06:13:19.357Z,5.73
2024-03-28T06:14:07.083Z,5.75
2024-03-28T06:14:50.304Z,5.74
2024-03-28T06:15:23.588Z,5.58
2024-03-28T06:15:56.779Z,5.55
2024-03-28T06:16:32.684Z,5.58
2024-03-28T06:17:05.995Z,5.59
2024-03-28T06:17:39.350Z,5.68
2024-03-28T06:18:31.500Z,5.75
2024-03-28T06:19:05.358Z,5.66
2024-03-28T06:19:38.954Z,5.74
2024-03-28T06:20:12.537Z,5.79
2024-03-28T06:20:45.918Z,5.87
2024-03-28T06:21:19.402Z,5.93
2024-03-28T06:22:08.784Z,5.90
2024-03-28T06:22:42.343Z,5.90
2024-03-28T06:23:15.640Z,5.97
2024-03-28T06:23:49.247Z,6.00
2024-03-28T06:24:23.374Z,5.93
2024-03-28T06:24:57.156Z,5.86
2024-03-28T06:25:49.659Z,5.97
2024-03-28T06:26:24.154Z,6.01
2024-03-28T06:26:57.600Z,5.95
2024-03-28T06:27:33.862Z,5.98
2024-03-28T06:28:09.473Z,6.05
2024-03-28T06:28:42.743Z,6.02
2024-03-28T06:29:30.684Z,6.12
2024-03-28T06:30:04.495Z,5.98
2024-03-28T06:30:42.066Z,5.91
2024-03-28T06:31:18.778Z,6.00
2024-03-28T06:31:53.477Z,6.13
2024-03-28T06:32:26.768Z,6.23
2024-03-28T06:33:09.802Z,6.26
2024-03-28T06:33:44.381Z,6.32
2024-03-28T06:34:17.722Z,6.21
2024-03-28T06:34:55.571Z,6.16
2024-03-28T06:35:28.931Z,6.22
2024-03-28T06:36:06.233Z,6.26
2024-03-28T06:36:55.597Z,6.21
2024-03-28T06:37:29.109Z,6.16
2024-03-28T06:38:02.839Z,6.16
2024-03-28T06:38:36.161Z,6.28
2024-03-28T06:39:10.466Z,6.31
2024-03-28T06:39:45.472Z,6.34
2024-03-28T06:40:31.526Z,6.38
2024-03-28T06:41:05.236Z,6.22
2024-03-28T06:41:38.591Z,6.26
2024-03-28T06:42:12.198Z,6.31
2024-03-28T06:42:45.415Z,6.33
2024-03-28T06:43:18.756Z,6.35
2024-03-28T06:44:13.260Z,6.35
2024-03-28T06:44:48.801Z,6.34
2024-03-28T06:45:22.187Z,6.35
2024-03-28T06:45:55.238Z,6.39
2024-03-28T06:46:29.221Z,6.43
2024-03-28T06:47:03.382Z,6.44
2024-03-28T06:47:50.841Z,6.54
2024-03-28T06:48:25.378Z,6.45
2024-03-28T06:48:58.920Z,6.59
2024-03-28T06:49:32.302Z,6.41
2024-03-28T06:50:06.001Z,6.48
2024-03-28T06:50:40.133Z,6.43
2024-03-28T06:51:28.689Z,6.39
2024-03-28T06:52:02.120Z,6.39
2024-03-28T06:52:35.550Z,6.47
2024-03-28T06:53:09.730Z,6.50
2024-03-28T06:53:43.122Z,6.50
2024-03-28T06:54:16.477Z,6.64
2024-03-28T06:55:06.214Z,6.81
2024-03-28T06:55:39.655Z,6.82
2024-03-28T06:56:13.110Z,6.77
2024-03-28T06:56:46.602Z,6.86
2024-03-28T06:57:19.880Z,6.94
2024-03-28T06:57:53.282Z,6.87
2024-03-28T06:58:47.179Z,6.96
2024-03-28T06:59:21.110Z,6.83
2024-03-28T06:59:54.436Z,6.83
2024-03-28T07:00:28.384Z,6.90
2024-03-28T07:01:05.229Z,6.88
2024-03-28T07:01:39.099Z,6.99
2024-03-28T07:02:24.835Z,7.03
2024-03-28T07:02:58.719Z,6.95
2024-03-28T07:03:31.900Z,6.93
2024-03-28T07:04:05.299Z,6.94
2024-03-28T07:04:38.795Z,6.97
2024-03-28T07:05:12.002Z,6.99
2024-03-28T07:06:13.413Z,7.08
2024-03-28T07:06:50.691Z,7.01
2024-03-28T07:07:24.167Z,7.04
2024-03-28T07:07:57.926Z,7.03
2024-03-28T07:08:31.215Z,7.06
2024-03-28T07:09:04.781Z,7.12
2024-03-28T07:09:48.018Z,7.18
2024-03-28T07:10:22.978Z,7.14
2024-03-28T07:10:56.618Z,7.19
2024-03-28T07:11:30.643Z,7.17
2024-03-28T07:12:04.133Z,7.17
2024-03-28T07:12:38.931Z,7.17
2024-03-28T07:13:33.541Z,7.18
2024-03-28T07:14:09.046Z,7.10
2024-03-28T07:14:42.643Z,7.19
2024-03-28T07:15:15.991Z,7.13
2024-03-28T07:15:49.487Z,7.30
2024-03-28T07:16:23.071Z,7.30
2024-03-28T07:17:11.785Z,7.45
2024-03-28T07:17:45.846Z,7.45
2024-03-28T07:18:19.184Z,7.38
2024-03-28T07:18:55.262Z,7.51
2024-03-28T07:19:28.768Z,7.58
2024-03-28T07:20:02.421Z,7.59
2024-03-28T07:20:50.886Z,7.66
2024-03-28T07:21:24.826Z,7.58
2024-03-28T07:21:58.123Z,7.63
2024-03-28T07:22:32.303Z,7.67
2024-03-28T07:23:05.511Z,7.61
2024-03-28T07:23:42.436Z,7.71
2024-03-28T07:24:32.168Z,7.74
2024-03-28T07:25:06.211Z,7.74
2024-03-28T07:25:39.459Z,7.71
2024-03-28T07:26:12.614Z,7.71
2024-03-28T07:26:45.784Z,7.72
2024-03-28T07:27:19.436Z,7.74
2024-03-28T07:28:15.063Z,7.80
2024-03-28T07:28:49.180Z,7.89
2024-03-28T07:29:22.800Z,7.77
2024-03-28T07:29:56.480Z,7.84
2024-03-28T07:30:30.307Z,7.86
2024-03-28T07:31:04.247Z,7.87
2024-03-28T07:31:52.072Z,7.98
2024-03-28T07:32:25.956Z,8.01
2024-03-28T07:32:59.654Z,8.03
2024-03-28T07:33:33.246Z,8.10
2024-03-28T07:34:07.029Z,8.04
2024-03-28T07:34:42.326Z,8.02
2024-03-28T07:35:52.103Z,8.16
2024-03-28T07:36:25.477Z,8.12
2024-03-28T07:36:59.035Z,8.15
2024-03-28T07:37:33.380Z,8.13
2024-03-28T07:38:06.861Z,8.11
2024-03-28T07:39:13.017Z,8.21
2024-03-28T07:39:46.738Z,8.09
2024-03-28T07:40:20.296Z,8.11
2024-03-28T07:40:53.863Z,8.11
2024-03-28T07:41:26.956Z,8.00
2024-03-28T07:42:00.690Z,8.08
2024-03-28T07:42:49.749Z,8.11
2024-03-28T07:43:23.513Z,8.17
2024-03-28T07:43:56.791Z,8.25
2024-03-28T07:44:30.484Z,8.22
2024-03-28T07:45:04.473Z,8.27
2024-03-28T07:45:37.929Z,8.20
2024-03-28T07:46:27.334Z,8.44
2024-03-28T07:47:01.003Z,8.30
2024-03-28T07:47:34.658Z,8.45
2024-03-28T07:48:08.705Z,8.47
2024-03-28T07:48:42.236Z,8.48
2024-03-28T07:49:15.427Z,8.52
2024-03-28T07:50:26.731Z,8.59
2024-03-28T07:51:01.366Z,8.55
2024-03-28T07:51:34.544Z,8.60
2024-03-28T07:52:07.461Z,8.44
2024-03-28T07:52:40.744Z,8.47
2024-03-28T07:53:46.496Z,8.63
2024-03-28T07:54:19.870Z,8.63
2024-03-28T07:54:53.565Z,8.70
2024-03-28T07:55:27.084Z,8.67
2024-03-28T07:56:01.194Z,8.60
2024-03-28T07:56:35.133Z,8.66
2024-03-28T07:57:27.626Z,8.70
2024-03-28T07:58:02.717Z,8.54
2024-03-28T07:58:37.248Z,8.56
2024-03-28T07:59:12.082Z,8.82
2024-03-28T07:59:47.533Z,8.75
2024-03-28T08:00:24.028Z,8.64
2024-03-28T08:01:09.374Z,8.67
2024-03-28T08:01:42.812Z,8.59
2024-03-28T08:02:15.970Z,8.60
2024-03-28T08:02:50.559Z,8.63
2024-03-28T08:03:24.940Z,8.70
2024-03-28T08:03:58.672Z,8.85
2024-03-28T08:04:50.064Z,8.99
2024-03-28T08:05:23.611Z,8.98
2024-03-28T08:05:57.486Z,8.92
2024-03-28T08:06:31.093Z,8.89
2024-03-28T08:07:04.826Z,8.93
2024-03-28T08:07:39.470Z,8.95
2024-03-28T08:08:35.536Z,8.98
2024-03-28T08:09:10.986Z,8.97
2024-03-28T08:09:44.538Z,9.01
2024-03-28T08:10:18.691Z,9.06
2024-03-28T08:10:52.141Z,9.26
2024-03-28T08:11:25.473Z,9.20
2024-03-28T08:12:09.445Z,9.21
2024-03-28T08:12:42.593Z,9.44
2024-03-28T08:13:16.099Z,9.34
2024-03-28T08:13:49.302Z,9.41
2024-03-28T08:14:25.701Z,9.32
2024-03-28T08:15:00.610Z,9.35
2024-03-28T08:15:47.866Z,9.38
2024-03-28T08:16:21.672Z,9.42